sensor_id;sensor_type;location;lat;lon;timestamp;P1;durP1;ratioP1;P2;durP2;ratioP2
37205;SDS011;23099;42.636;23.198;2022-08-18T00:02:04;7.93;;;4.90;;
37205;SDS011;23099;42.636;23.198;2022-08-18T00:04:33;10.50;;;4.60;;
37205;SDS011;23099;42.636;23.198;2022-08-18T00:07:03;6.65;;;4.28;;
37205;SDS011;23099;42.636;23.198;2022-08-18T00:09:30;9.13;;;4.93;;
37205;SDS011;23099;42.636;23.198;2022-08-18T00:11:59;8.40;;;4.35;;
37205;SDS011;23099;42.636;23.198;2022-08-18T00:14:28;10.07;;;4.90;;
37205;SDS011;23099;42.636;23.198;2022-08-18T00:16:55;12.45;;;4.63;;
37205;SDS011;23099;42.636;23.198;2022-08-18T00:19:23;7.70;;;4.53;;
37205;SDS011;23099;42.636;23.198;2022-08-18T00:21:50;9.65;;;5.20;;
37205;SDS011;23099;42.636;23.198;2022-08-18T00:24:17;7.85;;;4.88;;
37205;SDS011;23099;42.636;23.198;2022-08-18T00:26:44;10.45;;;5.40;;
37205;SDS011;23099;42.636;23.198;2022-08-18T00:29:10;9.43;;;5.15;;
37205;SDS011;23099;42.636;23.198;2022-08-18T00:31:37;9.20;;;4.50;;
37205;SDS011;23099;42.636;23.198;2022-08-18T00:34:04;11.30;;;4.82;;
37205;SDS011;23099;42.636;23.198;2022-08-18T00:36:32;11.07;;;5.40;;
37205;SDS011;23099;42.636;23.198;2022-08-18T00:38:59;8.25;;;4.78;;
37205;SDS011;23099;42.636;23.198;2022-08-18T00:41:27;8.93;;;4.97;;
37205;SDS011;23099;42.636;23.198;2022-08-18T00:43:55;9.27;;;5.20;;
37205;SDS011;23099;42.636;23.198;2022-08-18T00:48:52;9.18;;;4.65;;
37205;SDS011;23099;42.636;23.198;2022-08-18T00:51:20;7.25;;;4.57;;
37205;SDS011;23099;42.636;23.198;2022-08-18T00:53:53;8.55;;;5.53;;
37205;SDS011;23099;42.636;23.198;2022-08-18T00:56:26;10.65;;;5.22;;
37205;SDS011;23099;42.636;23.198;2022-08-18T00:58:57;8.35;;;5.07;;
37205;SDS011;23099;42.636;23.198;2022-08-18T01:01:28;12.63;;;5.68;;
37205;SDS011;23099;42.636;23.198;2022-08-18T01:03:57;8.13;;;5.00;;
37205;SDS011;23099;42.636;23.198;2022-08-18T01:06:31;8.68;;;4.80;;
37205;SDS011;23099;42.636;23.198;2022-08-18T01:09:04;8.77;;;5.13;;
37205;SDS011;23099;42.636;23.198;2022-08-18T01:11:32;10.05;;;4.70;;
37205;SDS011;23099;42.636;23.198;2022-08-18T01:14:01;9.95;;;5.25;;
37205;SDS011;23099;42.636;23.198;2022-08-18T01:16:28;12.80;;;5.17;;
37205;SDS011;23099;42.636;23.198;2022-08-18T01:19:12;10.98;;;5.80;;
37205;SDS011;23099;42.636;23.198;2022-08-18T01:21:59;11.07;;;5.35;;
37205;SDS011;23099;42.636;23.198;2022-08-18T01:24:34;11.05;;;5.35;;
37205;SDS011;23099;42.636;23.198;2022-08-18T01:29:48;10.77;;;5.43;;
37205;SDS011;23099;42.636;23.198;2022-08-18T01:32:16;9.65;;;4.95;;
37205;SDS011;23099;42.636;23.198;2022-08-18T01:34:45;12.13;;;5.43;;
37205;SDS011;23099;42.636;23.198;2022-08-18T01:37:13;8.65;;;5.47;;
37205;SDS011;23099;42.636;23.198;2022-08-18T01:39:43;8.70;;;5.07;;
37205;SDS011;23099;42.636;23.198;2022-08-18T01:42:10;11.10;;;5.22;;
37205;SDS011;23099;42.636;23.198;2022-08-18T01:44:38;8.27;;;5.18;;
37205;SDS011;23099;42.636;23.198;2022-08-18T01:47:06;8.60;;;5.17;;
37205;SDS011;23099;42.636;23.198;2022-08-18T01:49:34;10.90;;;5.35;;
37205;SDS011;23099;42.636;23.198;2022-08-18T01:52:02;10.88;;;5.63;;
37205;SDS011;23099;42.636;23.198;2022-08-18T01:54:31;8.77;;;5.13;;
37205;SDS011;23099;42.636;23.198;2022-08-18T01:56:59;9.93;;;5.75;;
37205;SDS011;23099;42.636;23.198;2022-08-18T01:59:27;9.48;;;5.72;;
37205;SDS011;23099;42.636;23.198;2022-08-18T02:01:54;9.70;;;5.20;;
37205;SDS011;23099;42.636;23.198;2022-08-18T02:04:25;12.73;;;6.07;;
37205;SDS011;23099;42.636;23.198;2022-08-18T02:06:57;9.35;;;5.57;;
37205;SDS011;23099;42.636;23.198;2022-08-18T02:09:24;9.05;;;5.38;;
37205;SDS011;23099;42.636;23.198;2022-08-18T02:11:50;12.20;;;5.65;;
37205;SDS011;23099;42.636;23.198;2022-08-18T02:14:19;14.02;;;5.80;;
37205;SDS011;23099;42.636;23.198;2022-08-18T02:16:45;11.30;;;5.63;;
37205;SDS011;23099;42.636;23.198;2022-08-18T02:19:12;11.27;;;5.97;;
37205;SDS011;23099;42.636;23.198;2022-08-18T02:21:39;12.02;;;5.95;;
37205;SDS011;23099;42.636;23.198;2022-08-18T02:24:06;9.93;;;6.07;;
37205;SDS011;23099;42.636;23.198;2022-08-18T02:26:33;9.75;;;5.32;;
37205;SDS011;23099;42.636;23.198;2022-08-18T02:28:59;9.95;;;5.25;;
37205;SDS011;23099;42.636;23.198;2022-08-18T02:31:27;10.50;;;5.90;;
37205;SDS011;23099;42.636;23.198;2022-08-18T02:33:54;8.35;;;5.63;;
37205;SDS011;23099;42.636;23.198;2022-08-18T02:36:21;8.93;;;5.55;;
37205;SDS011;23099;42.636;23.198;2022-08-18T02:38:48;9.60;;;6.30;;
37205;SDS011;23099;42.636;23.198;2022-08-18T02:41:15;10.95;;;6.50;;
37205;SDS011;23099;42.636;23.198;2022-08-18T02:43:42;12.88;;;6.75;;
37205;SDS011;23099;42.636;23.198;2022-08-18T02:46:08;10.50;;;7.10;;
37205;SDS011;23099;42.636;23.198;2022-08-18T02:48:37;10.35;;;6.57;;
37205;SDS011;23099;42.636;23.198;2022-08-18T02:53:33;11.05;;;7.00;;
37205;SDS011;23099;42.636;23.198;2022-08-18T02:56:03;11.68;;;6.93;;
37205;SDS011;23099;42.636;23.198;2022-08-18T02:58:41;10.38;;;7.03;;
37205;SDS011;23099;42.636;23.198;2022-08-18T03:01:07;12.20;;;6.63;;
37205;SDS011;23099;42.636;23.198;2022-08-18T03:03:34;12.52;;;6.55;;
37205;SDS011;23099;42.636;23.198;2022-08-18T03:06:03;14.90;;;7.43;;
37205;SDS011;23099;42.636;23.198;2022-08-18T03:08:30;11.93;;;6.13;;
37205;SDS011;23099;42.636;23.198;2022-08-18T03:10:57;16.00;;;6.97;;
37205;SDS011;23099;42.636;23.198;2022-08-18T03:13:24;10.50;;;6.65;;
37205;SDS011;23099;42.636;23.198;2022-08-18T03:15:51;10.70;;;6.70;;
37205;SDS011;23099;42.636;23.198;2022-08-18T03:18:18;10.93;;;7.00;;
37205;SDS011;23099;42.636;23.198;2022-08-18T03:20:48;13.52;;;6.70;;
37205;SDS011;23099;42.636;23.198;2022-08-18T03:23:15;12.38;;;7.00;;
37205;SDS011;23099;42.636;23.198;2022-08-18T03:25:43;10.70;;;6.97;;
37205;SDS011;23099;42.636;23.198;2022-08-18T03:28:11;14.35;;;7.40;;
37205;SDS011;23099;42.636;23.198;2022-08-18T03:30:38;11.75;;;7.43;;
37205;SDS011;23099;42.636;23.198;2022-08-18T03:33:04;11.50;;;6.30;;
37205;SDS011;23099;42.636;23.198;2022-08-18T03:35:33;13.68;;;7.60;;
37205;SDS011;23099;42.636;23.198;2022-08-18T03:38:01;11.77;;;6.97;;
37205;SDS011;23099;42.636;23.198;2022-08-18T03:40:28;11.77;;;7.75;;
37205;SDS011;23099;42.636;23.198;2022-08-18T03:42:55;13.65;;;6.93;;
37205;SDS011;23099;42.636;23.198;2022-08-18T03:45:22;13.52;;;8.23;;
37205;SDS011;23099;42.636;23.198;2022-08-18T03:47:52;13.05;;;8.32;;
37205;SDS011;23099;42.636;23.198;2022-08-18T03:50:19;14.45;;;8.25;;
37205;SDS011;23099;42.636;23.198;2022-08-18T03:52:49;11.70;;;8.25;;
37205;SDS011;23099;42.636;23.198;2022-08-18T03:55:18;11.45;;;7.85;;
37205;SDS011;23099;42.636;23.198;2022-08-18T04:00:12;13.32;;;7.80;;
37205;SDS011;23099;42.636;23.198;2022-08-18T04:02:39;14.63;;;8.80;;
37205;SDS011;23099;42.636;23.198;2022-08-18T04:05:06;13.98;;;8.68;;
37205;SDS011;23099;42.636;23.198;2022-08-18T04:07:36;11.80;;;8.18;;
37205;SDS011;23099;42.636;23.198;2022-08-18T04:10:03;12.65;;;7.80;;
37205;SDS011;23099;42.636;23.198;2022-08-18T04:12:32;13.70;;;8.37;;
37205;SDS011;23099;42.636;23.198;2022-08-18T04:14:58;13.85;;;8.05;;
37205;SDS011;23099;42.636;23.198;2022-08-18T04:17:25;12.63;;;8.27;;
37205;SDS011;23099;42.636;23.198;2022-08-18T04:19:52;11.95;;;8.13;;
37205;SDS011;23099;42.636;23.198;2022-08-18T04:22:20;11.10;;;8.38;;
37205;SDS011;23099;42.636;23.198;2022-08-18T04:24:47;13.30;;;8.17;;
37205;SDS011;23099;42.636;23.198;2022-08-18T04:27:15;12.70;;;9.17;;
37205;SDS011;23099;42.636;23.198;2022-08-18T04:29:43;13.50;;;8.95;;
37205;SDS011;23099;42.636;23.198;2022-08-18T04:32:10;17.92;;;9.35;;
37205;SDS011;23099;42.636;23.198;2022-08-18T04:34:37;16.60;;;9.02;;
37205;SDS011;23099;42.636;23.198;2022-08-18T04:37:03;12.93;;;8.25;;
37205;SDS011;23099;42.636;23.198;2022-08-18T04:39:32;14.57;;;8.63;;
37205;SDS011;23099;42.636;23.198;2022-08-18T04:41:59;14.65;;;8.23;;
37205;SDS011;23099;42.636;23.198;2022-08-18T04:46:55;11.48;;;7.03;;
37205;SDS011;23099;42.636;23.198;2022-08-18T04:49:24;14.07;;;8.30;;
37205;SDS011;23099;42.636;23.198;2022-08-18T04:51:51;12.52;;;8.90;;
37205;SDS011;23099;42.636;23.198;2022-08-18T04:54:49;13.57;;;9.57;;
37205;SDS011;23099;42.636;23.198;2022-08-18T04:57:17;14.27;;;9.85;;
37205;SDS011;23099;42.636;23.198;2022-08-18T04:59:46;14.63;;;9.98;;
37205;SDS011;23099;42.636;23.198;2022-08-18T05:02:17;14.25;;;8.68;;
37205;SDS011;23099;42.636;23.198;2022-08-18T05:04:45;15.30;;;9.40;;
37205;SDS011;23099;42.636;23.198;2022-08-18T05:07:13;12.43;;;9.98;;
37205;SDS011;23099;42.636;23.198;2022-08-18T05:09:42;12.10;;;9.73;;
37205;SDS011;23099;42.636;23.198;2022-08-18T05:17:06;14.32;;;9.35;;
37205;SDS011;23099;42.636;23.198;2022-08-18T05:19:34;12.13;;;8.85;;
37205;SDS011;23099;42.636;23.198;2022-08-18T05:22:02;12.02;;;8.98;;
37205;SDS011;23099;42.636;23.198;2022-08-18T05:24:31;17.63;;;9.35;;
37205;SDS011;23099;42.636;23.198;2022-08-18T05:27:00;12.20;;;8.68;;
37205;SDS011;23099;42.636;23.198;2022-08-18T05:29:28;11.48;;;8.63;;
37205;SDS011;23099;42.636;23.198;2022-08-18T05:32:01;11.65;;;8.48;;
37205;SDS011;23099;42.636;23.198;2022-08-18T05:34:31;11.85;;;9.18;;
37205;SDS011;23099;42.636;23.198;2022-08-18T05:37:01;13.80;;;9.25;;
37205;SDS011;23099;42.636;23.198;2022-08-18T05:39:39;15.02;;;9.38;;
37205;SDS011;23099;42.636;23.198;2022-08-18T05:42:14;12.65;;;8.60;;
37205;SDS011;23099;42.636;23.198;2022-08-18T05:44:45;11.43;;;8.52;;
37205;SDS011;23099;42.636;23.198;2022-08-18T05:47:16;11.82;;;8.88;;
37205;SDS011;23099;42.636;23.198;2022-08-18T05:49:45;12.00;;;8.93;;
37205;SDS011;23099;42.636;23.198;2022-08-18T05:52:16;14.50;;;8.43;;
37205;SDS011;23099;42.636;23.198;2022-08-18T05:54:47;17.85;;;8.90;;
37205;SDS011;23099;42.636;23.198;2022-08-18T05:57:37;12.45;;;8.68;;
37205;SDS011;23099;42.636;23.198;2022-08-18T06:00:08;15.00;;;8.80;;
37205;SDS011;23099;42.636;23.198;2022-08-18T06:02:36;10.65;;;8.00;;
37205;SDS011;23099;42.636;23.198;2022-08-18T06:05:11;11.88;;;8.25;;
37205;SDS011;23099;42.636;23.198;2022-08-18T06:07:43;10.90;;;8.13;;
37205;SDS011;23099;42.636;23.198;2022-08-18T06:10:14;16.10;;;8.07;;
37205;SDS011;23099;42.636;23.198;2022-08-18T06:12:42;10.95;;;6.45;;
37205;SDS011;23099;42.636;23.198;2022-08-18T06:15:15;12.43;;;6.80;;
37205;SDS011;23099;42.636;23.198;2022-08-18T06:18:00;11.53;;;7.07;;
37205;SDS011;23099;42.636;23.198;2022-08-18T06:20:41;11.70;;;7.03;;
37205;SDS011;23099;42.636;23.198;2022-08-18T06:23:22;12.02;;;6.88;;
37205;SDS011;23099;42.636;23.198;2022-08-18T06:26:02;13.00;;;6.80;;
37205;SDS011;23099;42.636;23.198;2022-08-18T06:28:39;11.57;;;6.40;;
37205;SDS011;23099;42.636;23.198;2022-08-18T06:31:17;10.75;;;6.50;;
37205;SDS011;23099;42.636;23.198;2022-08-18T06:33:55;11.50;;;6.43;;
37205;SDS011;23099;42.636;23.198;2022-08-18T06:36:36;12.02;;;6.80;;
37205;SDS011;23099;42.636;23.198;2022-08-18T06:39:14;12.65;;;6.85;;
37205;SDS011;23099;42.636;23.198;2022-08-18T06:41:48;10.63;;;6.35;;
37205;SDS011;23099;42.636;23.198;2022-08-18T06:44:18;9.02;;;6.43;;
37205;SDS011;23099;42.636;23.198;2022-08-18T06:46:49;9.50;;;6.05;;
37205;SDS011;23099;42.636;23.198;2022-08-18T06:49:25;9.85;;;6.03;;
37205;SDS011;23099;42.636;23.198;2022-08-18T06:54:46;12.98;;;6.85;;
37205;SDS011;23099;42.636;23.198;2022-08-18T06:57:20;10.65;;;6.72;;
37205;SDS011;23099;42.636;23.198;2022-08-18T06:59:53;16.27;;;10.68;;
37205;SDS011;23099;42.636;23.198;2022-08-18T07:02:22;17.70;;;11.65;;
37205;SDS011;23099;42.636;23.198;2022-08-18T07:04:59;28.75;;;19.00;;
37205;SDS011;23099;42.636;23.198;2022-08-18T07:07:31;18.75;;;12.07;;
37205;SDS011;23099;42.636;23.198;2022-08-18T07:10:02;25.17;;;16.33;;
37205;SDS011;23099;42.636;23.198;2022-08-18T07:12:31;11.90;;;6.03;;
37205;SDS011;23099;42.636;23.198;2022-08-18T07:14:59;23.27;;;15.15;;
37205;SDS011;23099;42.636;23.198;2022-08-18T07:17:30;22.35;;;16.30;;
37205;SDS011;23099;42.636;23.198;2022-08-18T07:20:00;10.60;;;6.68;;
37205;SDS011;23099;42.636;23.198;2022-08-18T07:22:31;15.07;;;10.13;;
37205;SDS011;23099;42.636;23.198;2022-08-18T07:25:18;43.88;;;32.70;;
37205;SDS011;23099;42.636;23.198;2022-08-18T07:27:49;11.45;;;6.95;;
37205;SDS011;23099;42.636;23.198;2022-08-18T07:30:28;16.10;;;11.10;;
37205;SDS011;23099;42.636;23.198;2022-08-18T07:32:59;17.77;;;12.15;;
37205;SDS011;23099;42.636;23.198;2022-08-18T07:35:35;12.15;;;6.13;;
37205;SDS011;23099;42.636;23.198;2022-08-18T07:38:08;33.05;;;23.50;;
37205;SDS011;23099;42.636;23.198;2022-08-18T07:40:44;24.42;;;14.55;;
37205;SDS011;23099;42.636;23.198;2022-08-18T07:43:16;8.90;;;4.70;;
37205;SDS011;23099;42.636;23.198;2022-08-18T07:45:48;11.23;;;6.25;;
37205;SDS011;23099;42.636;23.198;2022-08-18T07:50:47;10.98;;;7.10;;
37205;SDS011;23099;42.636;23.198;2022-08-18T07:53:27;24.73;;;14.93;;
37205;SDS011;23099;42.636;23.198;2022-08-18T07:56:05;34.83;;;23.77;;
37205;SDS011;23099;42.636;23.198;2022-08-18T07:58:43;15.43;;;10.18;;
37205;SDS011;23099;42.636;23.198;2022-08-18T08:01:20;19.73;;;13.40;;
37205;SDS011;23099;42.636;23.198;2022-08-18T08:03:56;13.52;;;7.72;;
37205;SDS011;23099;42.636;23.198;2022-08-18T08:06:30;15.00;;;8.95;;
37205;SDS011;23099;42.636;23.198;2022-08-18T08:09:02;24.20;;;15.80;;
37205;SDS011;23099;42.636;23.198;2022-08-18T08:11:40;11.13;;;5.15;;
37205;SDS011;23099;42.636;23.198;2022-08-18T08:14:22;10.23;;;5.05;;
37205;SDS011;23099;42.636;23.198;2022-08-18T08:17:03;9.25;;;4.60;;
37205;SDS011;23099;42.636;23.198;2022-08-18T08:22:36;7.93;;;4.00;;
37205;SDS011;23099;42.636;23.198;2022-08-18T08:25:11;6.72;;;3.55;;
37205;SDS011;23099;42.636;23.198;2022-08-18T08:27:51;9.55;;;5.00;;
37205;SDS011;23099;42.636;23.198;2022-08-18T08:30:27;9.10;;;4.10;;
37205;SDS011;23099;42.636;23.198;2022-08-18T08:33:02;10.57;;;4.22;;
37205;SDS011;23099;42.636;23.198;2022-08-18T08:35:36;8.32;;;3.65;;
37205;SDS011;23099;42.636;23.198;2022-08-18T08:38:07;11.35;;;6.88;;
37205;SDS011;23099;42.636;23.198;2022-08-18T08:40:40;9.07;;;4.10;;
37205;SDS011;23099;42.636;23.198;2022-08-18T08:43:14;7.28;;;4.20;;
37205;SDS011;23099;42.636;23.198;2022-08-18T08:45:46;10.07;;;4.00;;
37205;SDS011;23099;42.636;23.198;2022-08-18T08:48:20;9.88;;;3.58;;
37205;SDS011;23099;42.636;23.198;2022-08-18T08:50:51;8.73;;;3.90;;
37205;SDS011;23099;42.636;23.198;2022-08-18T08:53:23;8.73;;;3.42;;
37205;SDS011;23099;42.636;23.198;2022-08-18T08:55:54;7.72;;;3.67;;
37205;SDS011;23099;42.636;23.198;2022-08-18T08:58:27;9.98;;;4.82;;
37205;SDS011;23099;42.636;23.198;2022-08-18T09:00:59;9.00;;;3.58;;
37205;SDS011;23099;42.636;23.198;2022-08-18T09:03:30;8.52;;;3.95;;
37205;SDS011;23099;42.636;23.198;2022-08-18T09:06:07;11.05;;;5.40;;
37205;SDS011;23099;42.636;23.198;2022-08-18T09:08:46;11.52;;;4.40;;
37205;SDS011;23099;42.636;23.198;2022-08-18T09:11:30;9.35;;;4.20;;
37205;SDS011;23099;42.636;23.198;2022-08-18T09:14:30;7.60;;;3.55;;
37205;SDS011;23099;42.636;23.198;2022-08-18T09:17:44;10.48;;;3.53;;
37205;SDS011;23099;42.636;23.198;2022-08-18T09:20:46;7.85;;;4.40;;
37205;SDS011;23099;42.636;23.198;2022-08-18T09:23:17;7.47;;;4.35;;
37205;SDS011;23099;42.636;23.198;2022-08-18T09:25:47;9.93;;;3.00;;
37205;SDS011;23099;42.636;23.198;2022-08-18T09:28:17;6.95;;;3.30;;
37205;SDS011;23099;42.636;23.198;2022-08-18T09:30:52;8.15;;;3.08;;
37205;SDS011;23099;42.636;23.198;2022-08-18T09:33:54;5.93;;;2.72;;
37205;SDS011;23099;42.636;23.198;2022-08-18T09:36:32;6.03;;;2.47;;
37205;SDS011;23099;42.636;23.198;2022-08-18T09:39:14;7.00;;;2.70;;
37205;SDS011;23099;42.636;23.198;2022-08-18T09:42:08;6.53;;;2.55;;
37205;SDS011;23099;42.636;23.198;2022-08-18T09:44:59;9.98;;;2.55;;
37205;SDS011;23099;42.636;23.198;2022-08-18T09:53:53;6.13;;;2.60;;
37205;SDS011;23099;42.636;23.198;2022-08-18T09:56:54;6.57;;;1.85;;
37205;SDS011;23099;42.636;23.198;2022-08-18T10:05:38;4.90;;;2.30;;
37205;SDS011;23099;42.636;23.198;2022-08-18T10:08:28;6.60;;;2.58;;
37205;SDS011;23099;42.636;23.198;2022-08-18T10:13:45;6.20;;;2.20;;
37205;SDS011;23099;42.636;23.198;2022-08-18T10:16:22;6.60;;;2.35;;
37205;SDS011;23099;42.636;23.198;2022-08-18T10:18:59;5.13;;;2.58;;
37205;SDS011;23099;42.636;23.198;2022-08-18T10:24:31;4.32;;;1.77;;
37205;SDS011;23099;42.636;23.198;2022-08-18T10:27:01;7.60;;;1.98;;
37205;SDS011;23099;42.636;23.198;2022-08-18T10:29:43;7.15;;;2.20;;
37205;SDS011;23099;42.636;23.198;2022-08-18T10:32:22;6.13;;;2.10;;
37205;SDS011;23099;42.636;23.198;2022-08-18T10:38:25;4.13;;;2.10;;
37205;SDS011;23099;42.636;23.198;2022-08-18T10:41:02;7.57;;;2.35;;
37205;SDS011;23099;42.636;23.198;2022-08-18T10:43:34;7.82;;;2.40;;
37205;SDS011;23099;42.636;23.198;2022-08-18T10:46:05;5.70;;;2.05;;
37205;SDS011;23099;42.636;23.198;2022-08-18T10:48:41;5.00;;;2.05;;
37205;SDS011;23099;42.636;23.198;2022-08-18T10:51:12;4.63;;;2.10;;
37205;SDS011;23099;42.636;23.198;2022-08-18T10:53:47;5.35;;;2.15;;
37205;SDS011;23099;42.636;23.198;2022-08-18T10:56:24;6.40;;;2.30;;
37205;SDS011;23099;42.636;23.198;2022-08-18T10:59:00;5.65;;;2.33;;
37205;SDS011;23099;42.636;23.198;2022-08-18T11:01:38;5.70;;;2.10;;
37205;SDS011;23099;42.636;23.198;2022-08-18T11:04:25;8.73;;;2.55;;
37205;SDS011;23099;42.636;23.198;2022-08-18T11:07:01;5.57;;;2.22;;
37205;SDS011;23099;42.636;23.198;2022-08-18T11:09:32;5.28;;;2.05;;
37205;SDS011;23099;42.636;23.198;2022-08-18T11:12:00;4.40;;;2.42;;
37205;SDS011;23099;42.636;23.198;2022-08-18T11:14:40;4.43;;;2.17;;
37205;SDS011;23099;42.636;23.198;2022-08-18T11:17:29;5.47;;;2.28;;
37205;SDS011;23099;42.636;23.198;2022-08-18T11:20:07;5.70;;;2.15;;
37205;SDS011;23099;42.636;23.198;2022-08-18T11:22:36;6.28;;;2.28;;
37205;SDS011;23099;42.636;23.198;2022-08-18T11:25:16;4.55;;;1.90;;
37205;SDS011;23099;42.636;23.198;2022-08-18T11:27:46;8.40;;;2.13;;
37205;SDS011;23099;42.636;23.198;2022-08-18T11:30:14;4.22;;;2.17;;
37205;SDS011;23099;42.636;23.198;2022-08-18T11:32:41;4.80;;;1.83;;
37205;SDS011;23099;42.636;23.198;2022-08-18T11:35:10;6.50;;;1.80;;
37205;SDS011;23099;42.636;23.198;2022-08-18T11:37:42;5.40;;;1.80;;
37205;SDS011;23099;42.636;23.198;2022-08-18T11:43:00;7.65;;;2.60;;
37205;SDS011;23099;42.636;23.198;2022-08-18T11:45:31;8.95;;;2.28;;
37205;SDS011;23099;42.636;23.198;2022-08-18T11:48:01;6.78;;;2.15;;
37205;SDS011;23099;42.636;23.198;2022-08-18T11:50:46;4.78;;;2.50;;
37205;SDS011;23099;42.636;23.198;2022-08-18T11:53:15;6.85;;;2.60;;
37205;SDS011;23099;42.636;23.198;2022-08-18T11:56:02;6.25;;;2.47;;
37205;SDS011;23099;42.636;23.198;2022-08-18T11:58:37;6.70;;;2.08;;
37205;SDS011;23099;42.636;23.198;2022-08-18T12:01:05;5.90;;;2.50;;
37205;SDS011;23099;42.636;23.198;2022-08-18T12:03:37;7.00;;;2.45;;
37205;SDS011;23099;42.636;23.198;2022-08-18T12:06:11;5.10;;;1.90;;
37205;SDS011;23099;42.636;23.198;2022-08-18T12:08:48;4.15;;;2.20;;
37205;SDS011;23099;42.636;23.198;2022-08-18T12:11:20;8.98;;;2.10;;
37205;SDS011;23099;42.636;23.198;2022-08-18T12:13:56;5.55;;;2.03;;
37205;SDS011;23099;42.636;23.198;2022-08-18T12:16:32;6.65;;;2.47;;
37205;SDS011;23099;42.636;23.198;2022-08-18T12:19:02;6.55;;;2.28;;
37205;SDS011;23099;42.636;23.198;2022-08-18T12:21:30;6.03;;;2.25;;
37205;SDS011;23099;42.636;23.198;2022-08-18T12:23:56;8.85;;;2.70;;
37205;SDS011;23099;42.636;23.198;2022-08-18T12:26:25;6.37;;;2.50;;
37205;SDS011;23099;42.636;23.198;2022-08-18T12:28:51;6.85;;;2.20;;
37205;SDS011;23099;42.636;23.198;2022-08-18T12:31:18;6.38;;;1.90;;
37205;SDS011;23099;42.636;23.198;2022-08-18T12:33:45;4.43;;;1.83;;
37205;SDS011;23099;42.636;23.198;2022-08-18T12:36:12;5.32;;;2.75;;
37205;SDS011;23099;42.636;23.198;2022-08-18T12:38:39;7.03;;;2.42;;
37205;SDS011;23099;42.636;23.198;2022-08-18T12:41:09;5.18;;;2.38;;
37205;SDS011;23099;42.636;23.198;2022-08-18T12:43:40;5.90;;;2.13;;
37205;SDS011;23099;42.636;23.198;2022-08-18T12:46:07;8.20;;;2.33;;
37205;SDS011;23099;42.636;23.198;2022-08-18T12:48:34;4.45;;;2.40;;
37205;SDS011;23099;42.636;23.198;2022-08-18T12:51:03;6.30;;;2.10;;
37205;SDS011;23099;42.636;23.198;2022-08-18T12:53:29;4.53;;;2.55;;
37205;SDS011;23099;42.636;23.198;2022-08-18T12:55:56;3.88;;;2.10;;
37205;SDS011;23099;42.636;23.198;2022-08-18T12:58:24;5.85;;;1.90;;
37205;SDS011;23099;42.636;23.198;2022-08-18T13:00:52;7.15;;;2.17;;
37205;SDS011;23099;42.636;23.198;2022-08-18T13:03:20;6.10;;;2.20;;
37205;SDS011;23099;42.636;23.198;2022-08-18T13:05:47;7.40;;;2.28;;
37205;SDS011;23099;42.636;23.198;2022-08-18T13:08:15;5.28;;;2.35;;
37205;SDS011;23099;42.636;23.198;2022-08-18T13:10:44;5.38;;;2.05;;
37205;SDS011;23099;42.636;23.198;2022-08-18T13:13:11;5.55;;;2.05;;
37205;SDS011;23099;42.636;23.198;2022-08-18T13:15:39;5.65;;;2.33;;
37205;SDS011;23099;42.636;23.198;2022-08-18T13:18:07;5.85;;;2.28;;
37205;SDS011;23099;42.636;23.198;2022-08-18T13:20:35;5.43;;;2.00;;
37205;SDS011;23099;42.636;23.198;2022-08-18T13:23:02;5.90;;;2.17;;
37205;SDS011;23099;42.636;23.198;2022-08-18T13:25:28;6.20;;;2.30;;
37205;SDS011;23099;42.636;23.198;2022-08-18T13:27:55;5.80;;;2.35;;
37205;SDS011;23099;42.636;23.198;2022-08-18T13:30:22;6.20;;;2.35;;
37205;SDS011;23099;42.636;23.198;2022-08-18T13:32:49;6.90;;;2.10;;
37205;SDS011;23099;42.636;23.198;2022-08-18T13:35:18;8.68;;;2.42;;
37205;SDS011;23099;42.636;23.198;2022-08-18T13:37:44;5.10;;;2.22;;
37205;SDS011;23099;42.636;23.198;2022-08-18T13:40:11;6.43;;;2.30;;
37205;SDS011;23099;42.636;23.198;2022-08-18T13:42:42;4.30;;;2.58;;
37205;SDS011;23099;42.636;23.198;2022-08-18T13:45:13;7.00;;;2.10;;
37205;SDS011;23099;42.636;23.198;2022-08-18T13:47:41;5.05;;;2.58;;
37205;SDS011;23099;42.636;23.198;2022-08-18T13:50:09;5.13;;;2.50;;
37205;SDS011;23099;42.636;23.198;2022-08-18T13:52:38;4.70;;;2.15;;
37205;SDS011;23099;42.636;23.198;2022-08-18T13:55:06;5.22;;;2.13;;
37205;SDS011;23099;42.636;23.198;2022-08-18T13:57:35;7.85;;;2.22;;
37205;SDS011;23099;42.636;23.198;2022-08-18T14:02:31;4.65;;;3.03;;
37205;SDS011;23099;42.636;23.198;2022-08-18T14:04:57;6.53;;;2.63;;
37205;SDS011;23099;42.636;23.198;2022-08-18T14:07:24;6.72;;;2.33;;
37205;SDS011;23099;42.636;23.198;2022-08-18T14:12:21;5.00;;;2.45;;
37205;SDS011;23099;42.636;23.198;2022-08-18T14:14:49;6.78;;;2.58;;
37205;SDS011;23099;42.636;23.198;2022-08-18T14:17:17;9.82;;;2.17;;
37205;SDS011;23099;42.636;23.198;2022-08-18T14:19:44;5.13;;;2.30;;
37205;SDS011;23099;42.636;23.198;2022-08-18T14:22:29;6.00;;;2.42;;
37205;SDS011;23099;42.636;23.198;2022-08-18T14:25:14;5.22;;;2.55;;
37205;SDS011;23099;42.636;23.198;2022-08-18T14:27:59;9.82;;;2.60;;
37205;SDS011;23099;42.636;23.198;2022-08-18T14:30:25;5.43;;;2.80;;
37205;SDS011;23099;42.636;23.198;2022-08-18T14:32:52;4.95;;;2.60;;
37205;SDS011;23099;42.636;23.198;2022-08-18T14:35:19;5.60;;;2.47;;
37205;SDS011;23099;42.636;23.198;2022-08-18T14:37:47;5.20;;;1.95;;
37205;SDS011;23099;42.636;23.198;2022-08-18T14:40:15;4.97;;;2.30;;
37205;SDS011;23099;42.636;23.198;2022-08-18T14:42:44;6.50;;;2.90;;
37205;SDS011;23099;42.636;23.198;2022-08-18T14:45:11;6.03;;;2.78;;
37205;SDS011;23099;42.636;23.198;2022-08-18T14:47:39;4.82;;;2.40;;
37205;SDS011;23099;42.636;23.198;2022-08-18T14:50:07;9.55;;;2.70;;
37205;SDS011;23099;42.636;23.198;2022-08-18T16:06:24;5.90;;;2.72;;
37205;SDS011;23099;42.636;23.198;2022-08-18T16:08:51;6.00;;;3.00;;
37205;SDS011;23099;42.636;23.198;2022-08-18T16:11:19;4.70;;;3.08;;
37205;SDS011;23099;42.636;23.198;2022-08-18T16:13:46;6.00;;;3.08;;
37205;SDS011;23099;42.636;23.198;2022-08-18T16:18:42;7.68;;;3.45;;
37205;SDS011;23099;42.636;23.198;2022-08-18T16:23:39;5.88;;;3.28;;
37205;SDS011;23099;42.636;23.198;2022-08-18T16:26:09;6.88;;;3.17;;
37205;SDS011;23099;42.636;23.198;2022-08-18T16:28:38;6.15;;;3.65;;
37205;SDS011;23099;42.636;23.198;2022-08-18T16:31:05;5.97;;;3.20;;
37205;SDS011;23099;42.636;23.198;2022-08-18T16:33:32;7.13;;;3.60;;
37205;SDS011;23099;42.636;23.198;2022-08-18T16:36:03;7.43;;;3.80;;
37205;SDS011;23099;42.636;23.198;2022-08-18T16:38:31;6.05;;;3.42;;
37205;SDS011;23099;42.636;23.198;2022-08-18T16:41:03;5.43;;;3.30;;
37205;SDS011;23099;42.636;23.198;2022-08-18T16:43:32;6.22;;;3.08;;
37205;SDS011;23099;42.636;23.198;2022-08-18T16:45:59;8.80;;;3.50;;
37205;SDS011;23099;42.636;23.198;2022-08-18T16:48:26;5.90;;;3.80;;
37205;SDS011;23099;42.636;23.198;2022-08-18T16:50:53;9.68;;;3.88;;
37205;SDS011;23099;42.636;23.198;2022-08-18T16:53:20;6.10;;;3.38;;
37205;SDS011;23099;42.636;23.198;2022-08-18T16:55:47;6.00;;;3.72;;
37205;SDS011;23099;42.636;23.198;2022-08-18T16:58:15;6.33;;;3.17;;
37205;SDS011;23099;42.636;23.198;2022-08-18T17:00:59;5.57;;;3.58;;
37205;SDS011;23099;42.636;23.198;2022-08-18T17:03:45;6.68;;;3.30;;
37205;SDS011;23099;42.636;23.198;2022-08-18T17:06:29;7.47;;;3.67;;
37205;SDS011;23099;42.636;23.198;2022-08-18T17:08:55;6.82;;;3.60;;